Kleinsee, South Africa
Current Conditions -  °F | °C
As of 10:00 AM on Tuesday 27 Jan 2015 (Local Time) from FAUP Reporting Station
Broken Clouds Broken Clouds  
Wind Chill: 70°   Ceiling: 10000
Heat Index: 70°   Visibility: 6mi
Dew Point: 64°   Wind: 3mph
Humidity: 83%   Direction: 20°NNE
Pressure: 30.06"   Gusts: NA
Location:  29.68°S, 17.07°E
Report Text: FAUP 270800Z 02003KT 9999 FEW020 BKN100 21/18 Q1018 RERA NOSIG
Loading
Personal Weather Stations






























Interactive Weather Map New forecast layout! Learn more

10-Day Weather Forecast

Advertisements
Track Severe Weather on mobile